createdAt,value
2023-04-16T00:01:51.670Z,47.70
2023-04-16T00:04:18.759Z,35.58
2023-04-16T00:06:45.932Z,36.88
2023-04-16T00:09:12.746Z,42.65
2023-04-16T00:11:39.544Z,32.92
2023-04-16T00:14:06.360Z,37.80
2023-04-16T00:16:33.364Z,36.10
2023-04-16T00:19:00.267Z,45.72
2023-04-16T00:21:27.088Z,47.35
2023-04-16T00:23:53.938Z,39.10
2023-04-16T00:26:21.202Z,38.75
2023-04-16T00:28:48.172Z,39.78
2023-04-16T00:31:15.094Z,39.08
2023-04-16T00:33:42.031Z,35.70
2023-04-16T00:36:09.702Z,33.53
2023-04-16T00:38:36.821Z,37.22
2023-04-16T00:41:03.768Z,39.65
2023-04-16T00:43:31.753Z,33.15
2023-04-16T00:45:59.247Z,38.88
2023-04-16T00:48:28.218Z,41.25
2023-04-16T00:50:55.927Z,41.45
2023-04-16T00:53:23.469Z,37.55
2023-04-16T00:55:51.064Z,41.95
2023-04-16T00:58:18.337Z,36.88
2023-04-16T01:00:45.374Z,41.55
2023-04-16T01:03:12.468Z,34.13
2023-04-16T01:05:39.646Z,38.33
2023-04-16T01:08:06.899Z,39.97
2023-04-16T01:10:33.815Z,41.33
2023-04-16T01:13:00.659Z,36.50
2023-04-16T01:15:27.563Z,33.72
2023-04-16T01:17:54.433Z,35.05
2023-04-16T01:20:21.348Z,37.58
2023-04-16T01:22:49.132Z,38.15
2023-04-16T01:25:16.425Z,40.42
2023-04-16T01:27:43.390Z,34.42
2023-04-16T01:30:10.568Z,39.38
2023-04-16T01:32:37.592Z,36.65
2023-04-16T01:35:04.724Z,37.45
2023-04-16T01:37:31.927Z,40.92
2023-04-16T01:39:58.802Z,38.17
2023-04-16T01:42:25.798Z,41.60
2023-04-16T01:44:52.741Z,39.03
2023-04-16T01:47:19.690Z,44.15
2023-04-16T01:49:48.226Z,39.42
2023-04-16T01:52:15.200Z,39.05
2023-04-16T01:54:42.137Z,44.65
2023-04-16T01:57:09.363Z,35.08
2023-04-16T01:59:36.181Z,40.47
2023-04-16T02:02:13.524Z,41.47
2023-04-16T02:04:42.149Z,38.63
2023-04-16T02:07:09.391Z,37.03
2023-04-16T02:09:37.751Z,38.00
2023-04-16T02:12:05.483Z,36.47
2023-04-16T02:14:33.845Z,35.85
2023-04-16T02:17:00.877Z,37.13
2023-04-16T02:19:27.832Z,38.92
2023-04-16T02:21:55.013Z,39.05
2023-04-16T02:24:22.081Z,38.15
2023-04-16T02:26:48.983Z,36.33
2023-04-16T02:29:16.586Z,35.50
2023-04-16T02:31:44.378Z,43.03
2023-04-16T02:34:11.385Z,37.25
2023-04-16T02:36:38.526Z,32.38
2023-04-16T02:39:05.373Z,34.78
2023-04-16T02:41:32.189Z,39.70
2023-04-16T02:43:59.079Z,40.80
2023-04-16T02:46:26.070Z,38.40
2023-04-16T02:48:53.267Z,36.03
2023-04-16T02:51:20.106Z,35.50
2023-04-16T02:53:46.992Z,37.90
2023-04-16T02:56:13.900Z,37.70
2023-04-16T02:58:40.876Z,39.40
2023-04-16T03:01:07.755Z,39.38
2023-04-16T03:03:34.623Z,41.00
2023-04-16T03:06:01.544Z,37.10
2023-04-16T03:08:28.409Z,36.80
2023-04-16T03:10:55.273Z,35.63
2023-04-16T03:13:22.410Z,41.17
2023-04-16T03:15:50.034Z,44.13
2023-04-16T03:18:17.012Z,35.78
2023-04-16T03:20:43.883Z,37.00
2023-04-16T03:23:10.867Z,40.55
2023-04-16T03:25:40.529Z,42.40
2023-04-16T03:28:07.400Z,36.53
2023-04-16T03:30:34.206Z,37.05
2023-04-16T03:33:01.292Z,39.58
2023-04-16T03:35:28.161Z,36.97
2023-04-16T03:37:55.047Z,38.22
2023-04-16T03:40:21.974Z,37.53
2023-04-16T03:42:48.831Z,38.60
2023-04-16T03:45:15.816Z,38.67
2023-04-16T03:47:42.698Z,39.15
2023-04-16T03:50:11.454Z,36.92
2023-04-16T03:52:38.419Z,34.90
2023-04-16T03:55:05.843Z,39.90
2023-04-16T03:57:32.758Z,36.25
2023-04-16T03:59:59.582Z,32.67
2023-04-16T04:02:27.278Z,40.72
2023-04-16T04:04:54.425Z,33.22
2023-04-16T04:07:21.289Z,34.83
2023-04-16T04:09:48.143Z,41.53
2023-04-16T04:12:15.014Z,32.33
2023-04-16T04:14:41.866Z,36.58
2023-04-16T04:17:09.323Z,37.45
2023-04-16T04:19:37.763Z,33.45
2023-04-16T04:24:32.485Z,37.28
2023-04-16T04:26:59.332Z,34.40
2023-04-16T04:29:26.183Z,34.75
2023-04-16T04:31:53.481Z,35.25
2023-04-16T04:34:20.648Z,36.72
2023-04-16T04:36:47.517Z,38.65
2023-04-16T04:39:14.330Z,31.85
2023-04-16T04:41:41.401Z,34.00
2023-04-16T04:44:08.179Z,37.35
2023-04-16T04:46:35.042Z,36.03
2023-04-16T04:49:01.882Z,36.85
2023-04-16T04:51:28.797Z,38.83
2023-04-16T04:53:55.701Z,33.67
2023-04-16T04:56:22.659Z,37.30
2023-04-16T04:58:52.511Z,40.17
2023-04-16T05:01:19.330Z,38.67
2023-04-16T05:03:46.351Z,36.28
2023-04-16T05:06:13.203Z,35.33
2023-04-16T05:08:40.032Z,36.55
2023-04-16T05:11:06.886Z,33.08
2023-04-16T05:13:33.718Z,37.15
2023-04-16T05:16:00.730Z,35.85
2023-04-16T05:18:27.782Z,36.30
2023-04-16T05:20:54.680Z,42.53
2023-04-16T05:23:21.533Z,39.22
2023-04-16T05:25:48.389Z,42.53
2023-04-16T05:28:15.195Z,36.92
2023-04-16T05:30:42.070Z,35.13
2023-04-16T05:33:09.013Z,39.22
2023-04-16T05:35:36.065Z,36.42
2023-04-16T05:38:04.438Z,36.80
2023-04-16T05:40:31.982Z,35.25
2023-04-16T05:42:58.804Z,37.38
2023-04-16T05:45:27.449Z,35.60
2023-04-16T05:47:55.064Z,38.33
2023-04-16T05:50:22.008Z,35.50
2023-04-16T05:52:48.881Z,36.53
2023-04-16T05:55:15.741Z,35.83
2023-04-16T05:57:42.705Z,30.45
2023-04-16T06:00:09.822Z,35.13
2023-04-16T06:02:36.784Z,38.22
2023-04-16T06:05:03.883Z,34.22
2023-04-16T06:07:31.049Z,32.60
2023-04-16T06:09:57.830Z,30.98
2023-04-16T06:12:24.645Z,37.40
2023-04-16T06:14:51.572Z,33.80
2023-04-16T06:17:19.412Z,30.88
2023-04-16T06:19:46.358Z,33.42
2023-04-16T06:22:13.257Z,36.53
2023-04-16T06:24:40.160Z,33.45
2023-04-16T06:27:06.959Z,36.38
2023-04-16T06:29:41.261Z,36.90
2023-04-16T06:32:09.012Z,36.67
2023-04-16T06:34:36.223Z,47.47
2023-04-16T06:37:03.051Z,39.97
2023-04-16T06:39:30.204Z,40.28
2023-04-16T06:41:57.484Z,31.88
2023-04-16T06:44:24.309Z,35.63
2023-04-16T06:46:51.620Z,30.98
2023-04-16T06:49:18.521Z,41.03
2023-04-16T06:51:45.518Z,30.08
2023-04-16T06:54:12.382Z,32.42
2023-04-16T06:56:39.239Z,38.05
2023-04-16T06:59:07.178Z,31.15
2023-04-16T07:01:34.447Z,28.48
2023-04-16T07:04:01.621Z,30.10
2023-04-16T07:06:28.579Z,30.33
2023-04-16T07:08:55.416Z,37.40
2023-04-16T07:11:22.586Z,30.17
2023-04-16T07:13:51.133Z,29.63
2023-04-16T07:16:18.592Z,31.03
2023-04-16T07:18:45.591Z,29.88
2023-04-16T07:21:12.419Z,31.50
2023-04-16T07:23:39.246Z,28.88
2023-04-16T07:26:06.230Z,32.08
2023-04-16T07:28:33.106Z,29.25
2023-04-16T07:31:00.399Z,31.05
2023-04-16T07:33:27.479Z,28.00
2023-04-16T07:35:54.461Z,28.52
2023-04-16T07:38:21.382Z,30.27
2023-04-16T07:40:48.270Z,27.50
2023-04-16T07:43:16.431Z,36.30
2023-04-16T07:45:43.425Z,31.75
2023-04-16T07:48:10.315Z,38.08
2023-04-16T07:50:37.287Z,40.25
2023-04-16T07:53:05.905Z,33.15
2023-04-16T07:55:32.772Z,32.27
2023-04-16T07:57:59.663Z,36.03
2023-04-16T08:00:26.682Z,32.47
2023-04-16T08:02:53.699Z,35.55
2023-04-16T08:05:21.046Z,27.60
2023-04-16T08:07:47.919Z,28.98
2023-04-16T08:10:14.815Z,28.30
2023-04-16T08:12:41.771Z,27.58
2023-04-16T08:15:09.014Z,26.85
2023-04-16T08:17:37.630Z,27.05
2023-04-16T08:20:05.869Z,32.90
2023-04-16T08:22:33.905Z,28.23
2023-04-16T08:25:01.046Z,26.02
2023-04-16T08:27:27.932Z,34.63
2023-04-16T08:29:54.802Z,29.48
2023-04-16T08:32:21.806Z,28.65
2023-04-16T08:34:48.748Z,30.23
2023-04-16T08:37:15.697Z,25.10
2023-04-16T08:39:42.619Z,25.52
2023-04-16T08:42:18.801Z,28.70
2023-04-16T08:44:50.984Z,24.20
2023-04-16T08:47:18.700Z,27.58
2023-04-16T08:49:46.374Z,25.05
2023-04-16T08:52:22.029Z,25.63
2023-04-16T08:55:00.340Z,25.58
2023-04-16T08:57:34.139Z,24.80
2023-04-16T09:00:01.423Z,27.13
2023-04-16T09:02:28.939Z,24.67
2023-04-16T09:04:59.860Z,27.38
2023-04-16T09:07:29.569Z,24.35
2023-04-16T09:09:59.519Z,26.83
2023-04-16T09:12:26.503Z,31.50
2023-04-16T09:14:53.669Z,24.85
2023-04-16T09:17:20.563Z,23.88
2023-04-16T09:19:47.567Z,26.02
2023-04-16T09:22:14.495Z,22.17
2023-04-16T09:24:42.041Z,23.65
2023-04-16T09:27:09.197Z,25.45
2023-04-16T09:29:40.168Z,22.85
2023-04-16T09:32:11.516Z,22.52
2023-04-16T09:34:58.840Z,23.65
2023-04-16T09:37:27.175Z,25.73
2023-04-16T09:40:04.839Z,27.33
2023-04-16T09:42:34.153Z,32.00
2023-04-16T09:45:02.788Z,26.88
2023-04-16T09:47:43.309Z,25.02
2023-04-16T09:50:17.761Z,21.98
2023-04-16T09:52:48.719Z,24.45
2023-04-16T09:55:15.540Z,24.80
2023-04-16T09:57:42.405Z,22.27
2023-04-16T10:00:10.441Z,22.23
2023-04-16T10:02:41.756Z,21.88
2023-04-16T10:05:09.732Z,21.23
2023-04-16T10:07:37.878Z,21.98
2023-04-16T10:10:05.376Z,22.63
2023-04-16T10:12:33.012Z,26.45
2023-04-16T10:15:00.052Z,20.35
2023-04-16T10:17:30.014Z,22.58
2023-04-16T10:19:58.626Z,21.15
2023-04-16T10:22:26.602Z,21.00
2023-04-16T10:24:54.875Z,24.65
2023-04-16T10:27:22.630Z,26.98
2023-04-16T10:29:50.079Z,22.77
2023-04-16T10:32:18.650Z,21.30
2023-04-16T10:34:46.193Z,23.50
2023-04-16T10:37:13.087Z,20.80
2023-04-16T10:39:40.109Z,20.05
2023-04-16T10:42:14.766Z,20.05
2023-04-16T10:44:44.583Z,21.73
2023-04-16T10:47:13.430Z,23.08
2023-04-16T10:49:41.204Z,18.85
2023-04-16T10:52:12.245Z,21.85
2023-04-16T10:54:40.265Z,21.15
2023-04-16T10:57:09.435Z,22.52
2023-04-16T10:59:37.929Z,24.00
2023-04-16T11:02:12.967Z,22.60
2023-04-16T11:04:42.859Z,19.25
2023-04-16T11:07:18.912Z,20.33
2023-04-16T11:10:02.519Z,19.13
2023-04-16T11:12:29.426Z,21.52
2023-04-16T11:15:02.224Z,19.90
2023-04-16T11:17:37.849Z,18.15
2023-04-16T11:20:19.150Z,18.27
2023-04-16T11:22:48.721Z,21.08
2023-04-16T11:25:26.774Z,20.38
2023-04-16T11:27:54.663Z,22.58
2023-04-16T11:30:39.054Z,20.42
2023-04-16T11:33:11.217Z,20.88
2023-04-16T11:35:39.563Z,20.65
2023-04-16T11:38:07.346Z,18.20
2023-04-16T11:40:34.835Z,21.90
2023-04-16T11:43:19.864Z,20.10
2023-04-16T11:46:12.928Z,20.65
2023-04-16T11:48:52.309Z,20.10
2023-04-16T11:51:20.694Z,19.45
2023-04-16T11:53:56.689Z,24.30
2023-04-16T11:56:32.380Z,20.50
2023-04-16T11:59:20.440Z,20.88
2023-04-16T12:01:57.928Z,19.05
2023-04-16T12:04:26.828Z,20.77
2023-04-16T12:07:11.354Z,21.33
2023-04-16T12:09:42.526Z,17.27
2023-04-16T12:12:30.740Z,19.10
2023-04-16T12:15:00.129Z,16.80
2023-04-16T12:17:27.112Z,19.90
2023-04-16T12:19:58.178Z,17.50
2023-04-16T12:22:28.153Z,17.40
2023-04-16T12:25:11.208Z,18.77
2023-04-16T12:27:54.122Z,15.75
2023-04-16T12:30:23.383Z,17.67
2023-04-16T12:32:52.520Z,16.45
2023-04-16T12:37:57.110Z,16.83
2023-04-16T12:40:23.924Z,16.15
2023-04-16T12:42:50.793Z,19.52
2023-04-16T12:45:17.668Z,17.65
2023-04-16T12:47:44.621Z,16.75
2023-04-16T12:50:11.583Z,16.70
2023-04-16T12:52:38.486Z,17.20
2023-04-16T12:55:05.973Z,18.83
2023-04-16T12:57:32.863Z,16.27
2023-04-16T12:59:59.725Z,17.02
2023-04-16T13:02:26.957Z,19.02
2023-04-16T13:04:54.634Z,19.20
2023-04-16T13:07:21.977Z,17.55
2023-04-16T13:09:49.018Z,18.02
2023-04-16T13:12:16.116Z,17.25
2023-04-16T13:14:45.024Z,18.45
2023-04-16T13:17:12.129Z,18.25
2023-04-16T13:19:38.968Z,17.10
2023-04-16T13:22:05.786Z,16.63
2023-04-16T13:24:32.661Z,17.85
2023-04-16T13:26:59.531Z,16.95
2023-04-16T13:29:27.197Z,16.63
2023-04-16T13:31:54.391Z,17.23
2023-04-16T13:34:21.577Z,17.15
2023-04-16T13:36:48.718Z,15.52
2023-04-16T13:39:15.907Z,14.43
2023-04-16T13:41:43.158Z,17.13
2023-04-16T13:44:10.037Z,15.23
2023-04-16T13:46:37.004Z,16.75
2023-04-16T13:49:03.977Z,15.50
2023-04-16T13:51:30.867Z,16.00
2023-04-16T13:53:57.860Z,13.15
2023-04-16T13:56:25.267Z,14.35
2023-04-16T13:58:52.294Z,14.88
2023-04-16T14:01:19.604Z,13.52
2023-04-16T14:03:48.422Z,13.18
2023-04-16T14:06:18.006Z,12.07
2023-04-16T14:08:45.573Z,13.02
2023-04-16T14:11:12.549Z,12.20
2023-04-16T14:13:39.453Z,15.00
2023-04-16T14:16:06.534Z,13.98
2023-04-16T14:18:33.421Z,13.63
2023-04-16T14:21:02.086Z,12.77
2023-04-16T14:23:28.991Z,11.73
2023-04-16T14:25:56.200Z,15.00
2023-04-16T14:28:23.082Z,12.60
2023-04-16T14:30:49.917Z,15.57
2023-04-16T14:33:16.743Z,15.43
2023-04-16T14:35:43.556Z,14.45
2023-04-16T14:38:11.497Z,15.60
2023-04-16T14:40:38.406Z,12.77
2023-04-16T14:43:05.420Z,15.05
2023-04-16T14:45:32.686Z,15.13
2023-04-16T14:47:59.610Z,13.55
2023-04-16T14:50:26.463Z,15.32
2023-04-16T14:52:54.568Z,17.05
2023-04-16T14:55:21.653Z,14.00
2023-04-16T14:57:48.552Z,15.60
2023-04-16T15:00:17.568Z,17.35
2023-04-16T15:02:46.151Z,16.60
2023-04-16T15:05:13.137Z,16.25
2023-04-16T15:07:40.171Z,17.88
2023-04-16T15:10:09.037Z,17.77
2023-04-16T15:12:36.016Z,16.10
2023-04-16T15:15:02.965Z,18.13
2023-04-16T15:17:29.897Z,17.27
2023-04-16T15:19:56.779Z,18.27
2023-04-16T15:22:23.895Z,16.48
2023-04-16T15:24:50.910Z,21.40
2023-04-16T15:27:18.174Z,17.65
2023-04-16T15:29:49.422Z,15.88
2023-04-16T15:32:16.646Z,19.58
2023-04-16T15:34:43.546Z,19.10
2023-04-16T15:37:10.353Z,15.45
2023-04-16T15:39:37.249Z,17.90
2023-04-16T15:42:07.694Z,18.70
2023-04-16T15:44:35.161Z,17.35
2023-04-16T15:47:02.015Z,16.83
2023-04-16T15:49:29.004Z,16.67
2023-04-16T15:51:56.438Z,14.48
2023-04-16T15:54:23.739Z,15.85
2023-04-16T15:56:51.280Z,14.63
2023-04-16T15:59:18.232Z,13.05
2023-04-16T16:01:45.122Z,16.92
2023-04-16T16:04:12.118Z,16.90
2023-04-16T16:06:39.175Z,12.65
2023-04-16T16:09:06.318Z,16.60
2023-04-16T16:11:33.258Z,13.57
2023-04-16T16:14:03.350Z,13.32
2023-04-16T16:16:30.764Z,14.60
2023-04-16T16:18:57.684Z,13.68
2023-04-16T16:21:24.630Z,14.00
2023-04-16T16:23:51.728Z,12.30
2023-04-16T16:26:20.566Z,12.68
2023-04-16T16:28:48.027Z,14.55
2023-04-16T16:31:14.926Z,13.50
2023-04-16T16:33:41.802Z,15.95
2023-04-16T16:36:12.386Z,14.30
2023-04-16T16:38:42.724Z,16.17
2023-04-16T16:41:09.705Z,15.20
2023-04-16T16:43:36.772Z,17.70
2023-04-16T16:46:04.798Z,16.17
2023-04-16T16:48:31.655Z,17.30
2023-04-16T16:50:58.588Z,16.95
2023-04-16T16:53:25.454Z,16.27
2023-04-16T16:55:52.315Z,17.15
2023-04-16T16:58:19.207Z,16.92
2023-04-16T17:00:46.270Z,16.02
2023-04-16T17:03:13.269Z,18.23
2023-04-16T17:05:40.626Z,16.70
2023-04-16T17:08:07.564Z,18.52
2023-04-16T17:10:35.919Z,21.40
2023-04-16T17:13:02.870Z,15.70
2023-04-16T17:15:29.796Z,20.42
2023-04-16T17:17:57.165Z,17.98
2023-04-16T17:20:24.155Z,16.83
2023-04-16T17:22:51.266Z,19.50
2023-04-16T17:25:18.235Z,16.42
2023-04-16T17:27:45.087Z,17.52
2023-04-16T17:30:12.241Z,17.33
2023-04-16T17:32:39.159Z,17.95
2023-04-16T17:35:06.926Z,16.88
2023-04-16T17:37:34.179Z,20.15
2023-04-16T17:40:01.179Z,17.13
2023-04-16T17:42:28.157Z,17.55
2023-04-16T17:44:55.088Z,17.67
2023-04-16T17:47:21.939Z,18.90
2023-04-16T17:49:48.871Z,19.52
2023-04-16T17:52:16.089Z,20.55
2023-04-16T17:54:43.093Z,16.80
2023-04-16T17:57:09.986Z,16.75
2023-04-16T17:59:36.848Z,17.63
2023-04-16T18:02:03.826Z,21.88
2023-04-16T18:04:31.272Z,17.95
2023-04-16T18:06:58.266Z,20.58
2023-04-16T18:09:25.703Z,16.95
2023-04-16T18:11:52.555Z,20.75
2023-04-16T18:14:21.312Z,20.67
2023-04-16T18:16:49.201Z,20.15
2023-04-16T18:19:16.641Z,18.73
2023-04-16T18:21:43.942Z,18.63
2023-04-16T18:24:11.537Z,24.50
2023-04-16T18:26:40.887Z,18.33
2023-04-16T18:29:09.119Z,18.88
2023-04-16T18:31:36.277Z,19.45
2023-04-16T18:34:03.205Z,18.45
2023-04-16T18:36:31.133Z,19.15
2023-04-16T18:39:02.270Z,19.58
2023-04-16T18:41:31.129Z,18.17
2023-04-16T18:43:58.204Z,17.80
2023-04-16T18:46:25.546Z,21.67
2023-04-16T18:48:52.496Z,22.60
2023-04-16T18:51:19.389Z,17.77
2023-04-16T18:53:46.359Z,23.25
2023-04-16T18:56:13.316Z,22.45
2023-04-16T18:58:40.186Z,21.83
2023-04-16T19:01:11.330Z,25.30
2023-04-16T19:03:38.931Z,23.15
2023-04-16T19:06:06.544Z,23.42
2023-04-16T19:08:33.566Z,23.63
2023-04-16T19:11:00.401Z,22.45
2023-04-16T19:13:27.357Z,22.63
2023-04-16T19:16:01.645Z,22.40
2023-04-16T19:18:28.898Z,24.75
2023-04-16T19:21:00.646Z,23.15
2023-04-16T19:23:28.144Z,24.15
2023-04-16T19:25:58.497Z,21.45
2023-04-16T19:28:25.941Z,20.70
2023-04-16T19:30:53.642Z,23.73
2023-04-16T19:33:20.716Z,23.45
2023-04-16T19:35:47.751Z,25.20
2023-04-16T19:38:14.802Z,27.77
2023-04-16T19:40:45.479Z,23.42
2023-04-16T19:43:12.715Z,24.75
2023-04-16T19:45:58.150Z,23.42
2023-04-16T19:48:25.013Z,24.30
2023-04-16T19:50:52.186Z,21.77
2023-04-16T19:53:19.048Z,21.10
2023-04-16T19:55:46.195Z,22.45
2023-04-16T19:58:14.518Z,24.13
2023-04-16T20:00:42.090Z,24.83
2023-04-16T20:03:09.674Z,23.42
2023-04-16T20:05:36.527Z,23.13
2023-04-16T20:08:03.694Z,26.42
2023-04-16T20:10:31.582Z,22.75
2023-04-16T20:12:58.790Z,24.60
2023-04-16T20:15:25.778Z,25.85
2023-04-16T20:17:53.387Z,25.92
2023-04-16T20:20:23.524Z,25.40
2023-04-16T20:22:50.693Z,25.30
2023-04-16T20:25:19.315Z,24.70
2023-04-16T20:27:46.342Z,28.77
2023-04-16T20:30:13.902Z,30.25
2023-04-16T20:32:40.891Z,28.60
2023-04-16T20:35:10.730Z,25.95
2023-04-16T20:37:38.623Z,28.85
2023-04-16T20:40:09.519Z,24.35
2023-04-16T20:42:36.470Z,24.98
2023-04-16T20:45:03.526Z,26.48
2023-04-16T20:47:30.503Z,25.77
2023-04-16T20:49:58.162Z,27.73
2023-04-16T20:52:25.032Z,24.55
2023-04-16T20:54:52.345Z,24.27
2023-04-16T20:57:19.460Z,27.00
2023-04-16T20:59:46.435Z,29.73
2023-04-16T21:02:14.241Z,26.35
2023-04-16T21:04:41.341Z,25.50
2023-04-16T21:07:08.313Z,27.92
2023-04-16T21:09:35.729Z,23.67
2023-04-16T21:12:02.917Z,23.73
2023-04-16T21:14:29.838Z,23.80
2023-04-16T21:16:56.706Z,25.75
2023-04-16T21:19:23.639Z,23.48
2023-04-16T21:21:50.704Z,22.95
2023-04-16T21:24:17.648Z,26.23
2023-04-16T21:26:44.504Z,22.17
2023-04-16T21:29:11.625Z,26.23
2023-04-16T21:31:38.777Z,23.35
2023-04-16T21:34:05.871Z,22.25
2023-04-16T21:36:34.037Z,24.75
2023-04-16T21:39:01.050Z,23.73
2023-04-16T21:41:28.054Z,24.33
2023-04-16T21:43:54.903Z,25.40
2023-04-16T21:46:21.833Z,22.83
2023-04-16T21:48:49.711Z,25.77
2023-04-16T21:51:16.724Z,21.60
2023-04-16T21:53:43.796Z,24.65
2023-04-16T21:56:10.751Z,23.42
2023-04-16T21:58:37.648Z,23.98
2023-04-16T22:01:04.657Z,23.67
2023-04-16T22:03:33.559Z,26.63
2023-04-16T22:06:01.646Z,26.48
2023-04-16T22:08:32.338Z,24.52
2023-04-16T22:11:01.947Z,24.90
2023-04-16T22:13:32.124Z,26.00
2023-04-16T22:16:01.407Z,26.17
2023-04-16T22:18:29.062Z,26.05
2023-04-16T22:20:56.275Z,25.80
2023-04-16T22:23:26.319Z,26.73
2023-04-16T22:25:55.430Z,28.40
2023-04-16T22:28:23.063Z,26.95
2023-04-16T22:30:50.133Z,26.23
2023-04-16T22:33:17.202Z,28.13
2023-04-16T22:35:44.264Z,26.63
2023-04-16T22:38:11.189Z,28.50
2023-04-16T22:40:38.122Z,27.20
2023-04-16T22:43:05.235Z,27.52
2023-04-16T22:45:32.196Z,27.85
2023-04-16T22:47:59.127Z,32.20
2023-04-16T22:50:26.101Z,30.95
2023-04-16T22:52:52.918Z,36.83
2023-04-16T22:55:19.884Z,34.70
2023-04-16T22:57:47.530Z,34.30
2023-04-16T23:00:17.977Z,32.42
2023-04-16T23:02:45.385Z,31.30
2023-04-16T23:05:12.431Z,32.70
2023-04-16T23:07:39.348Z,32.85
2023-04-16T23:10:08.388Z,33.08
2023-04-16T23:12:37.368Z,38.47
2023-04-16T23:15:06.482Z,34.17
2023-04-16T23:17:33.925Z,35.28
2023-04-16T23:20:01.223Z,42.63
2023-04-16T23:22:28.164Z,40.53
2023-04-16T23:24:55.226Z,35.15
2023-04-16T23:27:22.208Z,36.00
2023-04-16T23:29:49.123Z,38.58
2023-04-16T23:32:16.337Z,34.80
2023-04-16T23:34:43.222Z,38.13
2023-04-16T23:37:10.191Z,37.28
2023-04-16T23:39:37.108Z,41.50
2023-04-16T23:42:04.068Z,39.22
2023-04-16T23:44:31.346Z,41.47
2023-04-16T23:46:58.399Z,41.97
2023-04-16T23:49:25.459Z,35.45
2023-04-16T23:51:52.367Z,39.47
2023-04-16T23:54:19.536Z,38.00
2023-04-16T23:56:46.544Z,40.10
2023-04-16T23:59:13.870Z,40.25
